sensor_id;sensor_type;location;lat;lon;timestamp;P1;durP1;ratioP1;P2;durP2;ratioP2
58384;SDS011;44185;47.844;8.966;2023-05-10T00:01:24;0.50;;;0.40;;
58384;SDS011;44185;47.844;8.966;2023-05-10T00:03:49;0.47;;;0.40;;
58384;SDS011;44185;47.844;8.966;2023-05-10T00:06:15;0.45;;;0.45;;
58384;SDS011;44185;47.844;8.966;2023-05-10T00:08:40;0.47;;;0.30;;
58384;SDS011;44185;47.844;8.966;2023-05-10T00:11:06;0.30;;;0.30;;
58384;SDS011;44185;47.844;8.966;2023-05-10T00:13:32;0.60;;;0.60;;
58384;SDS011;44185;47.844;8.966;2023-05-10T00:15:57;0.47;;;0.38;;
58384;SDS011;44185;47.844;8.966;2023-05-10T00:18:24;0.43;;;0.40;;
58384;SDS011;44185;47.844;8.966;2023-05-10T00:20:49;1.00;;;0.60;;
58384;SDS011;44185;47.844;8.966;2023-05-10T00:23:15;1.67;;;0.30;;
58384;SDS011;44185;47.844;8.966;2023-05-10T00:25:40;0.45;;;0.40;;
58384;SDS011;44185;47.844;8.966;2023-05-10T00:28:06;0.50;;;0.50;;
58384;SDS011;44185;47.844;8.966;2023-05-10T00:30:32;0.52;;;0.47;;
58384;SDS011;44185;47.844;8.966;2023-05-10T00:32:57;0.40;;;0.40;;
58384;SDS011;44185;47.844;8.966;2023-05-10T00:35:24;0.40;;;0.40;;
58384;SDS011;44185;47.844;8.966;2023-05-10T00:37:49;0.60;;;0.60;;
58384;SDS011;44185;47.844;8.966;2023-05-10T00:40:15;0.30;;;0.30;;
58384;SDS011;44185;47.844;8.966;2023-05-10T00:42:40;0.80;;;0.57;;
58384;SDS011;44185;47.844;8.966;2023-05-10T00:45:06;0.60;;;0.60;;
58384;SDS011;44185;47.844;8.966;2023-05-10T00:47:32;1.08;;;0.70;;
58384;SDS011;44185;47.844;8.966;2023-05-10T00:49:58;0.50;;;0.50;;
58384;SDS011;44185;47.844;8.966;2023-05-10T00:52:25;0.85;;;0.60;;
58384;SDS011;44185;47.844;8.966;2023-05-10T00:54:50;0.70;;;0.70;;
58384;SDS011;44185;47.844;8.966;2023-05-10T00:57:17;0.50;;;0.50;;
58384;SDS011;44185;47.844;8.966;2023-05-10T00:59:43;0.73;;;0.60;;
58384;SDS011;44185;47.844;8.966;2023-05-10T01:02:08;0.68;;;0.68;;
58384;SDS011;44185;47.844;8.966;2023-05-10T01:04:34;0.60;;;0.60;;
58384;SDS011;44185;47.844;8.966;2023-05-10T01:07:00;0.80;;;0.80;;
58384;SDS011;44185;47.844;8.966;2023-05-10T01:09:27;1.70;;;0.85;;
58384;SDS011;44185;47.844;8.966;2023-05-10T01:11:52;0.50;;;0.50;;
58384;SDS011;44185;47.844;8.966;2023-05-10T01:14:19;1.30;;;0.65;;
58384;SDS011;44185;47.844;8.966;2023-05-10T01:16:45;0.98;;;0.88;;
58384;SDS011;44185;47.844;8.966;2023-05-10T01:19:16;0.93;;;0.93;;
58384;SDS011;44185;47.844;8.966;2023-05-10T01:21:49;3.08;;;1.10;;
58384;SDS011;44185;47.844;8.966;2023-05-10T01:27:37;1.50;;;0.88;;
58384;SDS011;44185;47.844;8.966;2023-05-10T01:30:28;1.45;;;1.10;;
58384;SDS011;44185;47.844;8.966;2023-05-10T01:33:19;0.65;;;0.65;;
58384;SDS011;44185;47.844;8.966;2023-05-10T01:35:51;1.15;;;0.80;;
58384;SDS011;44185;47.844;8.966;2023-05-10T01:38:27;0.88;;;0.88;;
58384;SDS011;44185;47.844;8.966;2023-05-10T01:41:01;0.95;;;0.95;;
58384;SDS011;44185;47.844;8.966;2023-05-10T01:43:39;0.90;;;0.90;;
58384;SDS011;44185;47.844;8.966;2023-05-10T01:46:14;0.95;;;0.88;;
58384;SDS011;44185;47.844;8.966;2023-05-10T01:48:47;0.75;;;0.75;;
58384;SDS011;44185;47.844;8.966;2023-05-10T01:51:19;1.15;;;0.90;;
58384;SDS011;44185;47.844;8.966;2023-05-10T01:53:48;1.98;;;0.90;;
58384;SDS011;44185;47.844;8.966;2023-05-10T01:56:17;0.88;;;0.88;;
58384;SDS011;44185;47.844;8.966;2023-05-10T01:58:48;0.70;;;0.70;;
58384;SDS011;44185;47.844;8.966;2023-05-10T02:01:17;0.73;;;0.73;;
58384;SDS011;44185;47.844;8.966;2023-05-10T02:03:48;0.90;;;0.90;;
58384;SDS011;44185;47.844;8.966;2023-05-10T02:06:15;1.95;;;0.68;;
58384;SDS011;44185;47.844;8.966;2023-05-10T02:08:43;1.27;;;0.73;;
58384;SDS011;44185;47.844;8.966;2023-05-10T02:11:11;0.60;;;0.60;;
58384;SDS011;44185;47.844;8.966;2023-05-10T02:13:38;1.25;;;0.88;;
58384;SDS011;44185;47.844;8.966;2023-05-10T02:16:06;0.60;;;0.60;;
58384;SDS011;44185;47.844;8.966;2023-05-10T02:18:32;0.63;;;0.50;;
58384;SDS011;44185;47.844;8.966;2023-05-10T02:21:01;2.05;;;0.93;;
58384;SDS011;44185;47.844;8.966;2023-05-10T02:23:27;1.13;;;1.00;;
58384;SDS011;44185;47.844;8.966;2023-05-10T02:25:54;1.15;;;1.05;;
58384;SDS011;44185;47.844;8.966;2023-05-10T02:28:21;0.77;;;0.77;;
58384;SDS011;44185;47.844;8.966;2023-05-10T02:30:48;1.63;;;1.38;;
58384;SDS011;44185;47.844;8.966;2023-05-10T02:33:15;1.35;;;1.05;;
58384;SDS011;44185;47.844;8.966;2023-05-10T02:35:42;0.70;;;0.70;;
58384;SDS011;44185;47.844;8.966;2023-05-10T02:38:09;3.65;;;1.15;;
58384;SDS011;44185;47.844;8.966;2023-05-10T02:40:36;0.90;;;0.90;;
58384;SDS011;44185;47.844;8.966;2023-05-10T02:43:02;1.42;;;0.90;;
58384;SDS011;44185;47.844;8.966;2023-05-10T02:45:31;1.17;;;1.08;;
58384;SDS011;44185;47.844;8.966;2023-05-10T02:47:57;1.35;;;1.00;;
58384;SDS011;44185;47.844;8.966;2023-05-10T02:50:23;0.98;;;0.98;;
58384;SDS011;44185;47.844;8.966;2023-05-10T02:52:52;2.93;;;1.00;;
58384;SDS011;44185;47.844;8.966;2023-05-10T02:55:26;2.28;;;1.23;;
58384;SDS011;44185;47.844;8.966;2023-05-10T02:58:00;1.10;;;1.00;;
58384;SDS011;44185;47.844;8.966;2023-05-10T03:00:26;1.67;;;1.02;;
58384;SDS011;44185;47.844;8.966;2023-05-10T03:02:52;2.15;;;1.05;;
58384;SDS011;44185;47.844;8.966;2023-05-10T03:05:18;1.80;;;0.87;;
58384;SDS011;44185;47.844;8.966;2023-05-10T03:07:43;1.27;;;1.17;;
58384;SDS011;44185;47.844;8.966;2023-05-10T03:10:10;0.80;;;0.80;;
58384;SDS011;44185;47.844;8.966;2023-05-10T03:12:41;1.33;;;1.20;;
58384;SDS011;44185;47.844;8.966;2023-05-10T03:15:17;0.73;;;0.73;;
58384;SDS011;44185;47.844;8.966;2023-05-10T03:17:47;1.90;;;1.10;;
58384;SDS011;44185;47.844;8.966;2023-05-10T03:20:20;1.42;;;0.80;;
58384;SDS011;44185;47.844;8.966;2023-05-10T03:22:50;0.93;;;0.93;;
58384;SDS011;44185;47.844;8.966;2023-05-10T03:25:18;0.80;;;0.77;;
58384;SDS011;44185;47.844;8.966;2023-05-10T03:27:47;1.38;;;0.80;;
58384;SDS011;44185;47.844;8.966;2023-05-10T03:30:13;0.93;;;0.93;;
58384;SDS011;44185;47.844;8.966;2023-05-10T03:32:39;2.00;;;1.20;;
58384;SDS011;44185;47.844;8.966;2023-05-10T03:35:06;3.22;;;1.13;;
58384;SDS011;44185;47.844;8.966;2023-05-10T03:37:32;1.38;;;1.02;;
58384;SDS011;44185;47.844;8.966;2023-05-10T03:39:57;1.30;;;1.25;;
58384;SDS011;44185;47.844;8.966;2023-05-10T03:42:23;1.48;;;1.30;;
58384;SDS011;44185;47.844;8.966;2023-05-10T03:44:49;1.10;;;1.10;;
58384;SDS011;44185;47.844;8.966;2023-05-10T03:47:15;2.63;;;1.38;;
58384;SDS011;44185;47.844;8.966;2023-05-10T03:49:40;2.08;;;1.20;;
58384;SDS011;44185;47.844;8.966;2023-05-10T03:52:06;1.38;;;1.25;;
58384;SDS011;44185;47.844;8.966;2023-05-10T03:54:32;1.00;;;1.00;;
58384;SDS011;44185;47.844;8.966;2023-05-10T03:56:57;1.42;;;1.35;;
58384;SDS011;44185;47.844;8.966;2023-05-10T03:59:23;2.60;;;1.50;;
58384;SDS011;44185;47.844;8.966;2023-05-10T04:01:49;1.90;;;1.63;;
58384;SDS011;44185;47.844;8.966;2023-05-10T04:04:15;1.55;;;1.45;;
58384;SDS011;44185;47.844;8.966;2023-05-10T04:06:40;2.25;;;1.67;;
58384;SDS011;44185;47.844;8.966;2023-05-10T04:09:06;1.60;;;1.50;;
58384;SDS011;44185;47.844;8.966;2023-05-10T04:11:32;1.80;;;1.70;;
58384;SDS011;44185;47.844;8.966;2023-05-10T04:13:57;2.40;;;1.73;;
58384;SDS011;44185;47.844;8.966;2023-05-10T04:16:22;2.50;;;1.58;;
58384;SDS011;44185;47.844;8.966;2023-05-10T04:18:49;2.28;;;1.67;;
58384;SDS011;44185;47.844;8.966;2023-05-10T04:21:15;1.73;;;1.60;;
58384;SDS011;44185;47.844;8.966;2023-05-10T04:23:40;2.47;;;1.30;;
58384;SDS011;44185;47.844;8.966;2023-05-10T04:26:06;1.55;;;1.45;;
58384;SDS011;44185;47.844;8.966;2023-05-10T04:28:32;1.90;;;1.75;;
58384;SDS011;44185;47.844;8.966;2023-05-10T04:31:00;1.67;;;1.58;;
58384;SDS011;44185;47.844;8.966;2023-05-10T04:33:26;1.40;;;1.30;;
58384;SDS011;44185;47.844;8.966;2023-05-10T04:35:53;1.60;;;1.50;;
58384;SDS011;44185;47.844;8.966;2023-05-10T04:38:19;2.92;;;1.55;;
58384;SDS011;44185;47.844;8.966;2023-05-10T04:40:44;4.95;;;1.85;;
58384;SDS011;44185;47.844;8.966;2023-05-10T04:43:09;4.25;;;1.67;;
58384;SDS011;44185;47.844;8.966;2023-05-10T04:45:35;2.30;;;2.10;;
58384;SDS011;44185;47.844;8.966;2023-05-10T04:48:00;3.33;;;2.47;;
58384;SDS011;44185;47.844;8.966;2023-05-10T04:50:26;4.50;;;2.83;;
58384;SDS011;44185;47.844;8.966;2023-05-10T04:52:52;3.46;;;2.46;;
58384;SDS011;44185;47.844;8.966;2023-05-10T04:55:18;2.40;;;1.95;;
58384;SDS011;44185;47.844;8.966;2023-05-10T04:57:43;1.90;;;1.80;;
58384;SDS011;44185;47.844;8.966;2023-05-10T05:00:09;4.00;;;2.17;;
58384;SDS011;44185;47.844;8.966;2023-05-10T05:02:35;4.00;;;2.30;;
58384;SDS011;44185;47.844;8.966;2023-05-10T05:05:01;3.07;;;2.50;;
58384;SDS011;44185;47.844;8.966;2023-05-10T05:07:26;2.88;;;2.50;;
58384;SDS011;44185;47.844;8.966;2023-05-10T05:09:53;3.15;;;2.60;;
58384;SDS011;44185;47.844;8.966;2023-05-10T05:12:18;1.80;;;1.70;;
58384;SDS011;44185;47.844;8.966;2023-05-10T05:14:44;2.08;;;1.95;;
58384;SDS011;44185;47.844;8.966;2023-05-10T05:17:09;2.47;;;1.70;;
58384;SDS011;44185;47.844;8.966;2023-05-10T05:19:34;1.80;;;1.70;;
58384;SDS011;44185;47.844;8.966;2023-05-10T05:22:00;2.72;;;2.03;;
58384;SDS011;44185;47.844;8.966;2023-05-10T05:24:25;2.90;;;1.90;;
58384;SDS011;44185;47.844;8.966;2023-05-10T05:26:52;2.03;;;1.92;;
58384;SDS011;44185;47.844;8.966;2023-05-10T05:29:17;2.15;;;1.70;;
58384;SDS011;44185;47.844;8.966;2023-05-10T05:31:43;4.32;;;2.00;;
58384;SDS011;44185;47.844;8.966;2023-05-10T05:34:08;4.88;;;2.17;;
58384;SDS011;44185;47.844;8.966;2023-05-10T05:36:36;2.83;;;2.10;;
58384;SDS011;44185;47.844;8.966;2023-05-10T05:39:02;5.28;;;2.38;;
58384;SDS011;44185;47.844;8.966;2023-05-10T05:41:28;3.25;;;2.40;;
58384;SDS011;44185;47.844;8.966;2023-05-10T05:43:55;2.55;;;2.30;;
58384;SDS011;44185;47.844;8.966;2023-05-10T05:46:20;3.17;;;2.28;;
58384;SDS011;44185;47.844;8.966;2023-05-10T05:48:45;3.85;;;2.60;;
58384;SDS011;44185;47.844;8.966;2023-05-10T05:51:11;3.10;;;2.15;;
58384;SDS011;44185;47.844;8.966;2023-05-10T05:53:36;2.92;;;2.13;;
58384;SDS011;44185;47.844;8.966;2023-05-10T05:56:02;4.72;;;2.00;;
58384;SDS011;44185;47.844;8.966;2023-05-10T05:58:27;2.42;;;1.98;;
58384;SDS011;44185;47.844;8.966;2023-05-10T06:00:54;2.92;;;1.90;;
58384;SDS011;44185;47.844;8.966;2023-05-10T06:03:20;2.30;;;2.10;;
58384;SDS011;44185;47.844;8.966;2023-05-10T06:05:45;2.28;;;2.00;;
58384;SDS011;44185;47.844;8.966;2023-05-10T06:08:11;2.10;;;1.77;;
58384;SDS011;44185;47.844;8.966;2023-05-10T06:10:36;1.63;;;1.52;;
58384;SDS011;44185;47.844;8.966;2023-05-10T06:13:02;1.92;;;1.75;;
58384;SDS011;44185;47.844;8.966;2023-05-10T06:15:27;1.70;;;1.60;;
58384;SDS011;44185;47.844;8.966;2023-05-10T06:17:54;2.60;;;1.77;;
58384;SDS011;44185;47.844;8.966;2023-05-10T06:20:20;2.40;;;1.50;;
58384;SDS011;44185;47.844;8.966;2023-05-10T06:22:45;1.80;;;1.70;;
58384;SDS011;44185;47.844;8.966;2023-05-10T06:25:10;1.75;;;1.65;;
58384;SDS011;44185;47.844;8.966;2023-05-10T06:27:36;2.53;;;1.60;;
58384;SDS011;44185;47.844;8.966;2023-05-10T06:30:02;1.58;;;1.48;;
58384;SDS011;44185;47.844;8.966;2023-05-10T06:32:27;3.78;;;1.55;;
58384;SDS011;44185;47.844;8.966;2023-05-10T06:34:54;1.83;;;1.73;;
58384;SDS011;44185;47.844;8.966;2023-05-10T06:37:19;1.80;;;1.70;;
58384;SDS011;44185;47.844;8.966;2023-05-10T06:39:45;3.05;;;1.88;;
58384;SDS011;44185;47.844;8.966;2023-05-10T06:42:10;1.80;;;1.70;;
58384;SDS011;44185;47.844;8.966;2023-05-10T06:44:36;1.88;;;1.42;;
58384;SDS011;44185;47.844;8.966;2023-05-10T06:47:02;1.58;;;1.40;;
58384;SDS011;44185;47.844;8.966;2023-05-10T06:49:27;1.58;;;1.48;;
58384;SDS011;44185;47.844;8.966;2023-05-10T06:51:54;2.10;;;1.58;;
58384;SDS011;44185;47.844;8.966;2023-05-10T06:54:20;3.80;;;1.90;;
58384;SDS011;44185;47.844;8.966;2023-05-10T06:56:45;2.75;;;1.50;;
58384;SDS011;44185;47.844;8.966;2023-05-10T06:59:11;1.95;;;1.50;;
58384;SDS011;44185;47.844;8.966;2023-05-10T07:01:36;2.03;;;1.75;;
58384;SDS011;44185;47.844;8.966;2023-05-10T07:04:02;1.90;;;1.77;;
58384;SDS011;44185;47.844;8.966;2023-05-10T07:06:27;1.30;;;1.30;;
58384;SDS011;44185;47.844;8.966;2023-05-10T07:08:54;1.77;;;1.65;;
58384;SDS011;44185;47.844;8.966;2023-05-10T07:11:19;1.67;;;1.52;;
58384;SDS011;44185;47.844;8.966;2023-05-10T07:13:45;3.55;;;1.95;;
58384;SDS011;44185;47.844;8.966;2023-05-10T07:16:10;1.85;;;1.73;;
58384;SDS011;44185;47.844;8.966;2023-05-10T07:18:36;1.75;;;1.65;;
58384;SDS011;44185;47.844;8.966;2023-05-10T07:21:02;1.63;;;1.52;;
58384;SDS011;44185;47.844;8.966;2023-05-10T07:23:27;1.90;;;1.63;;
58384;SDS011;44185;47.844;8.966;2023-05-10T07:25:54;2.10;;;1.90;;
58384;SDS011;44185;47.844;8.966;2023-05-10T07:28:19;2.22;;;1.90;;
58384;SDS011;44185;47.844;8.966;2023-05-10T07:30:45;2.00;;;1.90;;
58384;SDS011;44185;47.844;8.966;2023-05-10T07:33:11;1.52;;;1.42;;
58384;SDS011;44185;47.844;8.966;2023-05-10T07:35:38;2.45;;;1.88;;
58384;SDS011;44185;47.844;8.966;2023-05-10T07:38:03;2.28;;;2.05;;
58384;SDS011;44185;47.844;8.966;2023-05-10T07:40:29;3.85;;;2.10;;
58384;SDS011;44185;47.844;8.966;2023-05-10T07:42:56;1.92;;;1.70;;
58384;SDS011;44185;47.844;8.966;2023-05-10T07:45:21;1.33;;;1.23;;
58384;SDS011;44185;47.844;8.966;2023-05-10T07:47:47;2.65;;;1.40;;
58384;SDS011;44185;47.844;8.966;2023-05-10T07:50:12;2.10;;;1.58;;
58384;SDS011;44185;47.844;8.966;2023-05-10T07:52:38;2.17;;;1.67;;
58384;SDS011;44185;47.844;8.966;2023-05-10T07:55:03;4.10;;;2.00;;
58384;SDS011;44185;47.844;8.966;2023-05-10T07:57:29;4.28;;;1.90;;
58384;SDS011;44185;47.844;8.966;2023-05-10T07:59:56;2.45;;;1.88;;
58384;SDS011;44185;47.844;8.966;2023-05-10T08:02:22;1.88;;;1.60;;
58384;SDS011;44185;47.844;8.966;2023-05-10T08:04:47;2.05;;;1.40;;
58384;SDS011;44185;47.844;8.966;2023-05-10T08:07:12;1.50;;;1.40;;
58384;SDS011;44185;47.844;8.966;2023-05-10T08:09:38;0.90;;;0.90;;
58384;SDS011;44185;47.844;8.966;2023-05-10T08:12:04;1.42;;;1.35;;
58384;SDS011;44185;47.844;8.966;2023-05-10T08:14:30;1.08;;;1.05;;
58384;SDS011;44185;47.844;8.966;2023-05-10T08:16:56;2.00;;;1.00;;
58384;SDS011;44185;47.844;8.966;2023-05-10T08:19:22;0.80;;;0.80;;
58384;SDS011;44185;47.844;8.966;2023-05-10T08:21:47;2.20;;;1.13;;
58384;SDS011;44185;47.844;8.966;2023-05-10T08:24:13;0.68;;;0.68;;
58384;SDS011;44185;47.844;8.966;2023-05-10T08:26:39;1.83;;;0.70;;
58384;SDS011;44185;47.844;8.966;2023-05-10T08:29:04;2.00;;;0.60;;
58384;SDS011;44185;47.844;8.966;2023-05-10T08:31:29;1.02;;;0.73;;
58384;SDS011;44185;47.844;8.966;2023-05-10T08:33:56;2.03;;;1.00;;
58384;SDS011;44185;47.844;8.966;2023-05-10T08:36:22;2.25;;;0.88;;
58384;SDS011;44185;47.844;8.966;2023-05-10T08:38:49;1.85;;;0.70;;
58384;SDS011;44185;47.844;8.966;2023-05-10T08:41:15;1.35;;;0.47;;
58384;SDS011;44185;47.844;8.966;2023-05-10T08:43:40;0.82;;;0.82;;
58384;SDS011;44185;47.844;8.966;2023-05-10T08:46:07;0.85;;;0.77;;
58384;SDS011;44185;47.844;8.966;2023-05-10T08:48:34;0.60;;;0.60;;
58384;SDS011;44185;47.844;8.966;2023-05-10T08:51:01;1.30;;;0.90;;
58384;SDS011;44185;47.844;8.966;2023-05-10T08:53:28;0.80;;;0.80;;
58384;SDS011;44185;47.844;8.966;2023-05-10T08:55:55;0.60;;;0.60;;
58384;SDS011;44185;47.844;8.966;2023-05-10T08:58:22;0.75;;;0.75;;
58384;SDS011;44185;47.844;8.966;2023-05-10T09:00:48;0.82;;;0.50;;
58384;SDS011;44185;47.844;8.966;2023-05-10T09:03:14;0.75;;;0.70;;
58384;SDS011;44185;47.844;8.966;2023-05-10T09:05:40;3.70;;;1.00;;
58384;SDS011;44185;47.844;8.966;2023-05-10T09:08:07;2.70;;;1.00;;
58384;SDS011;44185;47.844;8.966;2023-05-10T09:10:33;1.38;;;1.10;;
58384;SDS011;44185;47.844;8.966;2023-05-10T09:12:59;0.63;;;0.63;;
58384;SDS011;44185;47.844;8.966;2023-05-10T09:15:25;1.88;;;0.98;;
58384;SDS011;44185;47.844;8.966;2023-05-10T09:17:50;1.40;;;0.90;;
58384;SDS011;44185;47.844;8.966;2023-05-10T09:20:17;2.53;;;1.90;;
58384;SDS011;44185;47.844;8.966;2023-05-10T09:22:42;1.10;;;1.00;;
58384;SDS011;44185;47.844;8.966;2023-05-10T09:25:10;2.78;;;1.40;;
58384;SDS011;44185;47.844;8.966;2023-05-10T09:27:37;0.90;;;0.90;;
58384;SDS011;44185;47.844;8.966;2023-05-10T09:30:04;1.40;;;1.13;;
58384;SDS011;44185;47.844;8.966;2023-05-10T09:32:37;2.08;;;1.30;;
58384;SDS011;44185;47.844;8.966;2023-05-10T09:35:07;2.17;;;1.15;;
58384;SDS011;44185;47.844;8.966;2023-05-10T09:37:35;1.77;;;1.52;;
58384;SDS011;44185;47.844;8.966;2023-05-10T09:40:00;0.85;;;0.82;;
58384;SDS011;44185;47.844;8.966;2023-05-10T09:42:31;1.48;;;1.38;;
58384;SDS011;44185;47.844;8.966;2023-05-10T09:44:59;0.80;;;0.80;;
58384;SDS011;44185;47.844;8.966;2023-05-10T09:47:25;2.43;;;1.07;;
58384;SDS011;44185;47.844;8.966;2023-05-10T09:49:51;2.15;;;1.50;;
58384;SDS011;44185;47.844;8.966;2023-05-10T09:52:18;2.70;;;1.15;;
58384;SDS011;44185;47.844;8.966;2023-05-10T09:54:45;0.50;;;0.50;;
58384;SDS011;44185;47.844;8.966;2023-05-10T09:57:18;1.48;;;1.15;;
58384;SDS011;44185;47.844;8.966;2023-05-10T09:59:46;1.17;;;1.08;;
58384;SDS011;44185;47.844;8.966;2023-05-10T10:02:12;0.90;;;0.90;;
58384;SDS011;44185;47.844;8.966;2023-05-10T10:04:38;0.80;;;0.80;;
58384;SDS011;44185;47.844;8.966;2023-05-10T10:07:04;2.47;;;0.85;;
58384;SDS011;44185;47.844;8.966;2023-05-10T10:09:30;5.25;;;1.50;;
58384;SDS011;44185;47.844;8.966;2023-05-10T10:11:56;2.17;;;1.90;;
58384;SDS011;44185;47.844;8.966;2023-05-10T10:14:22;4.32;;;1.33;;
58384;SDS011;44185;47.844;8.966;2023-05-10T10:16:49;3.63;;;1.30;;
58384;SDS011;44185;47.844;8.966;2023-05-10T10:19:15;1.30;;;1.20;;
58384;SDS011;44185;47.844;8.966;2023-05-10T10:21:40;1.98;;;1.10;;
58384;SDS011;44185;47.844;8.966;2023-05-10T10:24:06;0.73;;;0.73;;
58384;SDS011;44185;47.844;8.966;2023-05-10T10:26:32;1.50;;;0.93;;
58384;SDS011;44185;47.844;8.966;2023-05-10T10:29:03;2.55;;;1.65;;
58384;SDS011;44185;47.844;8.966;2023-05-10T10:31:38;1.45;;;1.33;;
58384;SDS011;44185;47.844;8.966;2023-05-10T10:34:08;0.80;;;0.80;;
58384;SDS011;44185;47.844;8.966;2023-05-10T10:36:45;1.85;;;1.40;;
58384;SDS011;44185;47.844;8.966;2023-05-10T10:39:12;1.67;;;1.30;;
58384;SDS011;44185;47.844;8.966;2023-05-10T10:41:39;3.35;;;1.42;;
58384;SDS011;44185;47.844;8.966;2023-05-10T10:44:24;1.55;;;1.45;;
58384;SDS011;44185;47.844;8.966;2023-05-10T10:47:01;2.45;;;1.27;;
58384;SDS011;44185;47.844;8.966;2023-05-10T10:49:30;1.15;;;1.05;;
58384;SDS011;44185;47.844;8.966;2023-05-10T10:52:15;2.53;;;1.27;;
58384;SDS011;44185;47.844;8.966;2023-05-10T10:54:49;2.03;;;1.35;;
58384;SDS011;44185;47.844;8.966;2023-05-10T10:57:17;2.20;;;1.40;;
58384;SDS011;44185;47.844;8.966;2023-05-10T10:59:44;1.30;;;1.10;;
58384;SDS011;44185;47.844;8.966;2023-05-10T11:02:09;1.30;;;1.20;;
58384;SDS011;44185;47.844;8.966;2023-05-10T11:04:42;2.63;;;1.40;;
58384;SDS011;44185;47.844;8.966;2023-05-10T11:07:17;1.35;;;1.23;;
58384;SDS011;44185;47.844;8.966;2023-05-10T11:09:43;3.90;;;1.40;;
58384;SDS011;44185;47.844;8.966;2023-05-10T11:12:08;1.67;;;1.30;;
58384;SDS011;44185;47.844;8.966;2023-05-10T11:14:34;3.08;;;1.17;;
58384;SDS011;44185;47.844;8.966;2023-05-10T11:16:59;2.08;;;1.40;;
58384;SDS011;44185;47.844;8.966;2023-05-10T11:19:27;1.85;;;0.98;;
58384;SDS011;44185;47.844;8.966;2023-05-10T11:22:12;4.60;;;1.23;;
58384;SDS011;44185;47.844;8.966;2023-05-10T11:24:38;1.50;;;1.05;;
58384;SDS011;44185;47.844;8.966;2023-05-10T11:27:03;2.67;;;1.63;;
58384;SDS011;44185;47.844;8.966;2023-05-10T11:29:30;1.50;;;1.10;;
58384;SDS011;44185;47.844;8.966;2023-05-10T11:31:56;2.85;;;1.40;;
58384;SDS011;44185;47.844;8.966;2023-05-10T11:34:23;1.85;;;1.70;;
58384;SDS011;44185;47.844;8.966;2023-05-10T11:36:50;1.95;;;1.55;;
58384;SDS011;44185;47.844;8.966;2023-05-10T11:39:18;3.88;;;1.55;;
58384;SDS011;44185;47.844;8.966;2023-05-10T11:41:44;3.40;;;1.70;;
58384;SDS011;44185;47.844;8.966;2023-05-10T11:46:38;3.05;;;1.35;;
58384;SDS011;44185;47.844;8.966;2023-05-10T11:49:04;2.13;;;1.35;;
58384;SDS011;44185;47.844;8.966;2023-05-10T11:51:33;2.88;;;1.42;;
58384;SDS011;44185;47.844;8.966;2023-05-10T11:53:59;2.00;;;1.58;;
58384;SDS011;44185;47.844;8.966;2023-05-10T11:56:26;2.15;;;1.20;;
58384;SDS011;44185;47.844;8.966;2023-05-10T11:58:52;1.40;;;1.30;;
58384;SDS011;44185;47.844;8.966;2023-05-10T12:01:18;1.85;;;0.80;;
58384;SDS011;44185;47.844;8.966;2023-05-10T12:03:44;1.70;;;1.20;;
58384;SDS011;44185;47.844;8.966;2023-05-10T12:06:09;1.17;;;0.82;;
58384;SDS011;44185;47.844;8.966;2023-05-10T12:08:35;2.50;;;0.90;;
58384;SDS011;44185;47.844;8.966;2023-05-10T12:11:04;2.42;;;1.20;;
58384;SDS011;44185;47.844;8.966;2023-05-10T12:13:32;1.65;;;1.27;;
58384;SDS011;44185;47.844;8.966;2023-05-10T12:15:57;1.73;;;0.82;;
58384;SDS011;44185;47.844;8.966;2023-05-10T12:18:23;1.90;;;0.95;;
58384;SDS011;44185;47.844;8.966;2023-05-10T12:20:49;2.15;;;0.80;;
58384;SDS011;44185;47.844;8.966;2023-05-10T12:23:17;2.72;;;1.33;;
58384;SDS011;44185;47.844;8.966;2023-05-10T12:25:42;0.80;;;0.80;;
58384;SDS011;44185;47.844;8.966;2023-05-10T12:28:08;2.55;;;0.93;;
58384;SDS011;44185;47.844;8.966;2023-05-10T12:30:35;1.95;;;1.10;;
58384;SDS011;44185;47.844;8.966;2023-05-10T12:33:02;4.25;;;1.23;;
58384;SDS011;44185;47.844;8.966;2023-05-10T12:35:32;0.90;;;0.90;;
58384;SDS011;44185;47.844;8.966;2023-05-10T12:37:59;1.58;;;0.80;;
58384;SDS011;44185;47.844;8.966;2023-05-10T12:40:24;1.08;;;0.70;;
58384;SDS011;44185;47.844;8.966;2023-05-10T12:42:50;1.48;;;0.77;;
58384;SDS011;44185;47.844;8.966;2023-05-10T12:45:17;2.97;;;0.75;;
58384;SDS011;44185;47.844;8.966;2023-05-10T12:47:44;0.82;;;0.82;;
58384;SDS011;44185;47.844;8.966;2023-05-10T12:50:09;1.17;;;1.08;;
58384;SDS011;44185;47.844;8.966;2023-05-10T12:52:35;0.88;;;0.88;;
58384;SDS011;44185;47.844;8.966;2023-05-10T12:55:00;1.45;;;0.52;;
58384;SDS011;44185;47.844;8.966;2023-05-10T12:57:26;1.75;;;0.90;;
58384;SDS011;44185;47.844;8.966;2023-05-10T12:59:52;1.55;;;0.60;;
58384;SDS011;44185;47.844;8.966;2023-05-10T13:02:18;1.13;;;0.77;;
58384;SDS011;44185;47.844;8.966;2023-05-10T13:04:44;3.90;;;1.27;;
58384;SDS011;44185;47.844;8.966;2023-05-10T13:07:10;0.40;;;0.40;;
58384;SDS011;44185;47.844;8.966;2023-05-10T13:09:35;1.75;;;1.08;;
58384;SDS011;44185;47.844;8.966;2023-05-10T13:12:02;2.75;;;1.00;;
58384;SDS011;44185;47.844;8.966;2023-05-10T13:14:27;2.35;;;0.77;;
58384;SDS011;44185;47.844;8.966;2023-05-10T13:16:53;3.08;;;0.90;;
58384;SDS011;44185;47.844;8.966;2023-05-10T13:19:18;3.53;;;0.90;;
58384;SDS011;44185;47.844;8.966;2023-05-10T13:21:45;1.58;;;1.08;;
58384;SDS011;44185;47.844;8.966;2023-05-10T13:24:11;3.85;;;1.55;;
58384;SDS011;44185;47.844;8.966;2023-05-10T13:26:37;0.80;;;0.80;;
58384;SDS011;44185;47.844;8.966;2023-05-10T13:29:02;3.05;;;0.70;;
58384;SDS011;44185;47.844;8.966;2023-05-10T13:31:28;1.45;;;1.00;;
58384;SDS011;44185;47.844;8.966;2023-05-10T13:33:53;1.48;;;0.88;;
58384;SDS011;44185;47.844;8.966;2023-05-10T13:36:18;3.00;;;0.95;;
58384;SDS011;44185;47.844;8.966;2023-05-10T13:38:45;2.40;;;1.00;;
58384;SDS011;44185;47.844;8.966;2023-05-10T13:41:11;1.13;;;0.63;;
58384;SDS011;44185;47.844;8.966;2023-05-10T13:43:36;2.45;;;0.90;;
58384;SDS011;44185;47.844;8.966;2023-05-10T13:46:02;1.90;;;1.02;;
58384;SDS011;44185;47.844;8.966;2023-05-10T13:48:27;2.30;;;0.73;;
58384;SDS011;44185;47.844;8.966;2023-05-10T13:50:53;1.45;;;0.85;;
58384;SDS011;44185;47.844;8.966;2023-05-10T13:53:18;2.83;;;0.75;;
58384;SDS011;44185;47.844;8.966;2023-05-10T13:55:45;1.55;;;0.70;;
58384;SDS011;44185;47.844;8.966;2023-05-10T13:58:10;2.40;;;0.93;;
58384;SDS011;44185;47.844;8.966;2023-05-10T14:00:36;1.40;;;0.70;;
58384;SDS011;44185;47.844;8.966;2023-05-10T14:03:02;1.27;;;0.80;;
58384;SDS011;44185;47.844;8.966;2023-05-10T14:05:27;1.75;;;0.95;;
58384;SDS011;44185;47.844;8.966;2023-05-10T14:07:52;1.48;;;0.82;;
58384;SDS011;44185;47.844;8.966;2023-05-10T14:10:18;0.70;;;0.70;;
58384;SDS011;44185;47.844;8.966;2023-05-10T14:12:45;1.05;;;0.82;;
58384;SDS011;44185;47.844;8.966;2023-05-10T14:15:10;0.85;;;0.85;;
58384;SDS011;44185;47.844;8.966;2023-05-10T14:17:36;2.00;;;0.87;;
58384;SDS011;44185;47.844;8.966;2023-05-10T14:20:02;1.88;;;1.02;;
58384;SDS011;44185;47.844;8.966;2023-05-10T14:22:27;1.77;;;1.00;;
58384;SDS011;44185;47.844;8.966;2023-05-10T14:24:53;0.95;;;0.68;;
58384;SDS011;44185;47.844;8.966;2023-05-10T14:27:18;1.05;;;0.98;;
58384;SDS011;44185;47.844;8.966;2023-05-10T14:29:45;1.00;;;0.85;;
58384;SDS011;44185;47.844;8.966;2023-05-10T14:32:11;3.33;;;1.08;;
58384;SDS011;44185;47.844;8.966;2023-05-10T14:34:37;1.02;;;1.00;;
58384;SDS011;44185;47.844;8.966;2023-05-10T14:37:02;2.78;;;0.90;;
58384;SDS011;44185;47.844;8.966;2023-05-10T14:39:28;1.90;;;1.08;;
58384;SDS011;44185;47.844;8.966;2023-05-10T14:41:53;1.98;;;1.10;;
58384;SDS011;44185;47.844;8.966;2023-05-10T14:44:19;1.03;;;0.93;;
58384;SDS011;44185;47.844;8.966;2023-05-10T14:46:45;0.80;;;0.80;;
58384;SDS011;44185;47.844;8.966;2023-05-10T14:49:11;2.05;;;1.10;;
58384;SDS011;44185;47.844;8.966;2023-05-10T14:51:36;2.15;;;1.05;;